If you wish to contribute or participate in the discussions about articles you are invited to join SKYbrary as a registered user

 Actions

Bildudalur Airport

From SKYbrary Wiki

BIBD
Airport
ICAO: BIBD – IATA: BIU
Summary
Name Bildudalur Airport
Region Northern Atlantic
Territory Iceland IS.gif
Location , Vestfiroir
Serving Bildudalur
Elevation 5.486 m
18 ft
18 ft5.486 m
Type small airport
Coordinates 65° 38' 29.00" N, 23° 32' 46.00" W
Runways
Designator Length Width Surface ROPS
5/23 940 m3,083.99 ft
30 m98.425 ft
BIT /


METAR
Observation BIBD 111000Z 18002KT CAVOK 06/00 Q1018
Station Bildudalur Airport
Date/Time 11 April 2019 10:00:00
Wind direction 180°
Wind speed 02 kts
Lowest cloud amount clouds and visibility OK
Temperature 6°C
Dew point 0°C
Humidity 65%
QNH 1018 hPa
Weather condition n/a